Wyman, Iowa
Current Conditions -  °F | °C
As of 10:55 AM on Sunday 23 Nov 2014 (Local Time) from KAWG Reporting Station
Moderate Rain Moderate Rain  
Wind Chill: 52°   Ceiling: 400
Heat Index: 52°   Visibility: 1.2mi
Dew Point: 52°   Wind: 10mph
Humidity: 100%   Direction: 160°SSE
Pressure: 29.51"   Gusts: NA
Location:  41.2052°N, 91.5466°W
Report Text: KAWG 231655Z AUTO 16009KT 1 1/4SM RA OVC004 11/11 A2951 RMK AO2 P0024
Loading
Personal Weather Stations






























Interactive Weather Map New forecast layout! Learn more

10-Day Weather Forecast

Advertisements
Track Severe Weather on mobile